createdAt,value
2022-10-30T00:04:06.170Z,11.67
2022-10-30T00:09:11.427Z,11.66
2022-10-30T00:14:14.944Z,11.66
2022-10-30T00:19:18.254Z,11.68
2022-10-30T00:24:21.461Z,11.67
2022-10-30T00:29:26.615Z,11.64
2022-10-30T00:34:29.825Z,11.61
2022-10-30T00:39:33.137Z,11.61
2022-10-30T00:44:42.076Z,11.62
2022-10-30T00:50:11.601Z,11.60
2022-10-30T00:55:21.374Z,11.60
2022-10-30T01:00:27.644Z,11.60
2022-10-30T01:05:32.996Z,11.59
2022-10-30T01:10:36.422Z,11.55
2022-10-30T01:15:53.961Z,11.48
2022-10-30T01:21:07.923Z,11.40
2022-10-30T01:26:17.273Z,11.31
2022-10-30T01:31:38.094Z,11.23
2022-10-30T01:36:47.756Z,11.19
2022-10-30T01:41:51.381Z,11.15
2022-10-30T01:47:12.604Z,11.12
2022-10-30T01:52:35.370Z,11.10
2022-10-30T01:57:46.775Z,11.05
2022-10-30T02:02:52.233Z,10.99
2022-10-30T02:07:55.716Z,10.96
2022-10-30T02:12:59.263Z,10.95
2022-10-30T02:18:02.796Z,10.94
2022-10-30T02:23:07.178Z,10.93
2022-10-30T02:28:11.447Z,10.90
2022-10-30T02:33:14.722Z,10.86
2022-10-30T02:38:19.102Z,10.80
2022-10-30T02:43:22.201Z,10.77
2022-10-30T02:48:25.410Z,10.72
2022-10-30T02:53:28.923Z,10.65
2022-10-30T02:58:32.749Z,10.56
2022-10-30T03:03:36.622Z,10.54
2022-10-30T03:08:39.878Z,10.53
2022-10-30T03:13:44.829Z,10.53
2022-10-30T03:18:48.873Z,10.52
2022-10-30T03:23:52.477Z,10.49
2022-10-30T03:28:55.789Z,10.51
2022-10-30T03:33:59.097Z,10.51
2022-10-30T03:39:02.510Z,10.49
2022-10-30T03:44:05.718Z,10.47
2022-10-30T03:49:09.031Z,10.42
2022-10-30T03:54:12.237Z,10.38
2022-10-30T03:59:15.451Z,10.33
2022-10-30T04:04:18.656Z,10.29
2022-10-30T04:09:21.863Z,10.26
2022-10-30T04:14:25.584Z,10.29
2022-10-30T04:19:28.894Z,10.32
2022-10-30T04:24:32.101Z,10.33
2022-10-30T04:29:35.720Z,10.36
2022-10-30T04:34:39.789Z,10.37
2022-10-30T04:39:46.469Z,10.35
2022-10-30T04:44:49.851Z,10.32
2022-10-30T04:49:53.279Z,10.28
2022-10-30T04:54:56.574Z,10.29
2022-10-30T04:59:59.783Z,10.26
2022-10-30T05:05:03.975Z,10.20
2022-10-30T05:10:07.840Z,10.14
2022-10-30T05:15:13.173Z,10.11
2022-10-30T05:20:18.868Z,10.07
2022-10-30T05:25:23.506Z,10.04
2022-10-30T05:30:31.272Z,10.00
2022-10-30T05:35:35.964Z,10.00
2022-10-30T05:40:40.095Z,9.98
2022-10-30T05:45:44.227Z,9.95
2022-10-30T05:50:47.541Z,9.93
2022-10-30T05:55:51.368Z,9.92
2022-10-30T06:00:54.675Z,9.97
2022-10-30T06:05:57.986Z,10.04
2022-10-30T06:11:01.497Z,10.13
2022-10-30T06:16:05.420Z,10.24
2022-10-30T06:21:08.646Z,10.40
2022-10-30T06:26:11.940Z,10.55
2022-10-30T06:31:15.204Z,10.71
2022-10-30T06:36:18.567Z,10.85
2022-10-30T06:41:26.102Z,11.04
2022-10-30T06:46:33.814Z,11.19
2022-10-30T06:51:37.400Z,11.33
2022-10-30T06:56:41.123Z,11.46
2022-10-30T07:01:44.500Z,11.53
2022-10-30T07:06:47.848Z,11.55
2022-10-30T07:11:55.805Z,11.60
2022-10-30T07:17:00.101Z,11.69
2022-10-30T07:22:04.541Z,11.78
2022-10-30T07:27:08.055Z,11.90
2022-10-30T07:32:14.235Z,11.98
2022-10-30T07:37:17.440Z,12.06
2022-10-30T07:42:22.289Z,12.14
2022-10-30T07:47:25.630Z,12.27
2022-10-30T07:52:32.596Z,12.43
2022-10-30T07:57:40.313Z,12.59
2022-10-30T08:02:43.728Z,12.74
2022-10-30T08:07:48.568Z,12.87
2022-10-30T08:12:51.779Z,13.03
2022-10-30T08:17:55.916Z,13.19
2022-10-30T08:23:00.569Z,13.36
2022-10-30T08:28:06.829Z,13.51
2022-10-30T08:33:14.031Z,13.57
2022-10-30T08:38:18.674Z,13.66
2022-10-30T08:43:22.393Z,13.79
2022-10-30T08:48:25.600Z,13.77
2022-10-30T08:53:29.086Z,13.72
2022-10-30T08:58:32.326Z,13.75
2022-10-30T09:03:35.740Z,13.82
2022-10-30T09:08:39.360Z,13.93
2022-10-30T09:13:42.873Z,14.03
2022-10-30T09:18:46.081Z,14.11
2022-10-30T09:23:50.416Z,14.17
2022-10-30T09:28:53.938Z,14.26
2022-10-30T09:33:57.140Z,14.37
2022-10-30T09:39:00.451Z,14.50
2022-10-30T09:44:25.470Z,14.58
2022-10-30T09:50:04.108Z,14.70
2022-10-30T09:55:17.350Z,14.76
2022-10-30T10:00:23.299Z,14.82
2022-10-30T10:05:54.190Z,15.00
2022-10-30T10:11:14.039Z,15.15
2022-10-30T10:16:35.420Z,15.26
2022-10-30T10:21:49.680Z,15.42
2022-10-30T10:26:55.760Z,15.45
2022-10-30T10:32:10.845Z,15.44
2022-10-30T10:37:39.449Z,15.47
2022-10-30T10:42:53.001Z,15.49
2022-10-30T10:53:30.957Z,15.57
2022-10-30T10:58:52.289Z,15.78
2022-10-30T11:04:03.586Z,16.02
2022-10-30T11:09:17.149Z,16.25
2022-10-30T11:14:23.397Z,16.44
2022-10-30T11:19:28.673Z,16.39
2022-10-30T11:24:36.398Z,16.43
2022-10-30T11:30:07.962Z,16.77
2022-10-30T11:35:11.065Z,16.92
2022-10-30T11:40:19.810Z,17.12
2022-10-30T11:45:27.315Z,17.12
2022-10-30T11:50:32.776Z,17.20
2022-10-30T11:55:39.947Z,17.18
2022-10-30T12:00:45.541Z,17.18
2022-10-30T12:05:50.320Z,17.12
2022-10-30T12:10:53.699Z,17.05
2022-10-30T12:16:18.255Z,17.07
2022-10-30T12:21:21.621Z,17.28
2022-10-30T12:26:26.576Z,17.38
2022-10-30T12:31:44.321Z,17.50
2022-10-30T12:36:55.414Z,17.81
2022-10-30T12:42:01.698Z,18.07
2022-10-30T12:47:25.897Z,18.12
2022-10-30T12:52:41.800Z,17.89
2022-10-30T12:57:56.887Z,17.75
2022-10-30T13:03:16.889Z,17.53
2022-10-30T13:08:48.676Z,17.25
2022-10-30T13:13:58.123Z,17.02
2022-10-30T13:19:02.810Z,16.75
2022-10-30T13:24:10.893Z,16.53
2022-10-30T13:29:18.294Z,16.31
2022-10-30T13:34:25.600Z,16.11
2022-10-30T13:39:32.906Z,15.95
2022-10-30T13:44:44.918Z,15.79
2022-10-30T13:50:00.121Z,15.63
2022-10-30T13:55:08.948Z,15.44
2022-10-30T14:00:39.905Z,15.31
2022-10-30T14:06:04.619Z,15.22
2022-10-30T14:11:12.982Z,15.18
2022-10-30T14:16:31.415Z,15.14
2022-10-30T14:21:56.030Z,15.07
2022-10-30T14:27:05.173Z,14.99
2022-10-30T14:32:14.117Z,14.93
2022-10-30T14:37:37.808Z,14.88
2022-10-30T14:42:45.313Z,14.85
2022-10-30T14:48:06.749Z,14.83
2022-10-30T14:53:34.736Z,14.75
2022-10-30T14:58:39.482Z,14.64
2022-10-30T15:04:22.214Z,14.49
2022-10-30T15:09:34.949Z,14.32
2022-10-30T15:14:54.976Z,14.17
2022-10-30T15:20:02.088Z,13.96
2022-10-30T15:25:14.167Z,13.78
2022-10-30T15:30:20.918Z,13.67
2022-10-30T15:35:26.630Z,13.55
2022-10-30T15:40:30.919Z,13.46
2022-10-30T15:45:36.012Z,13.39
2022-10-30T15:50:45.206Z,13.26
2022-10-30T15:55:49.799Z,13.19
2022-10-30T16:00:58.901Z,13.07
2022-10-30T16:06:07.658Z,12.99
2022-10-30T16:11:11.099Z,12.93
2022-10-30T16:16:21.580Z,12.85
2022-10-30T16:21:27.857Z,12.78
2022-10-30T16:26:35.280Z,12.74
2022-10-30T16:31:38.885Z,12.70
2022-10-30T16:42:00.763Z,12.68
2022-10-30T16:47:24.142Z,12.68
2022-10-30T16:52:33.294Z,12.62
2022-10-30T16:57:41.972Z,12.55
2022-10-30T17:02:49.437Z,12.47
2022-10-30T17:07:57.751Z,12.42
2022-10-30T17:13:38.788Z,12.42
2022-10-30T17:18:42.278Z,12.43
2022-10-30T17:23:50.914Z,12.43
2022-10-30T17:28:54.222Z,12.43
2022-10-30T17:34:03.369Z,12.39
2022-10-30T17:39:07.603Z,12.35
2022-10-30T17:44:21.566Z,12.28
2022-10-30T17:49:30.505Z,12.22
2022-10-30T17:54:34.540Z,12.15
2022-10-30T17:59:38.561Z,12.10
2022-10-30T18:04:42.618Z,12.04
2022-10-30T18:09:45.795Z,11.98
2022-10-30T18:14:49.104Z,11.94
2022-10-30T18:19:52.738Z,11.86
2022-10-30T18:24:55.934Z,11.83
2022-10-30T18:29:59.350Z,11.80
2022-10-30T18:35:06.651Z,11.76
2022-10-30T18:40:10.782Z,11.69
2022-10-30T18:45:24.950Z,11.66
2022-10-30T18:50:32.307Z,11.61
2022-10-30T18:55:40.756Z,11.52
2022-10-30T19:01:10.598Z,11.45
2022-10-30T19:06:17.472Z,11.39
2022-10-30T19:11:24.901Z,11.29
2022-10-30T19:16:29.464Z,11.18
2022-10-30T19:21:34.922Z,11.12
2022-10-30T19:26:38.236Z,11.06
2022-10-30T19:31:41.540Z,11.04
2022-10-30T19:36:44.857Z,11.01
2022-10-30T19:41:48.467Z,10.95
2022-10-30T19:46:51.679Z,10.90
2022-10-30T19:51:54.989Z,10.86
2022-10-30T19:56:58.709Z,10.85
2022-10-30T20:02:02.285Z,10.81
2022-10-30T20:07:05.647Z,10.77
2022-10-30T20:12:08.952Z,10.72
2022-10-30T20:17:13.184Z,10.65
2022-10-30T20:22:16.394Z,10.61
2022-10-30T20:27:19.692Z,10.53
2022-10-30T20:32:23.218Z,10.46
2022-10-30T20:37:26.424Z,10.42
2022-10-30T20:42:35.964Z,10.39
2022-10-30T20:47:40.419Z,10.35
2022-10-30T20:52:43.933Z,10.32
2022-10-30T20:57:47.144Z,10.33
2022-10-30T21:02:50.354Z,10.32
2022-10-30T21:07:53.558Z,10.27
2022-10-30T21:12:58.846Z,10.25
2022-10-30T21:18:04.583Z,10.26
2022-10-30T21:23:07.895Z,10.22
2022-10-30T21:28:11.105Z,10.21
2022-10-30T21:33:14.311Z,10.24
2022-10-30T21:38:17.520Z,10.23
2022-10-30T21:43:20.727Z,10.18
2022-10-30T21:48:26.495Z,10.19
2022-10-30T21:53:31.138Z,10.20
2022-10-30T21:58:34.347Z,10.18
2022-10-30T22:03:37.556Z,10.11
2022-10-30T22:08:41.377Z,10.00
2022-10-30T22:13:45.529Z,9.81
2022-10-30T22:18:48.921Z,9.64
2022-10-30T22:23:52.437Z,9.50
2022-10-30T22:28:58.626Z,9.39
2022-10-30T22:34:02.234Z,9.33
2022-10-30T22:39:08.139Z,9.25
2022-10-30T22:44:17.711Z,9.20
2022-10-30T22:49:20.976Z,9.15
2022-10-30T22:54:24.283Z,9.05
2022-10-30T22:59:27.592Z,8.99
2022-10-30T23:04:30.802Z,9.00
2022-10-30T23:09:34.012Z,9.00
2022-10-30T23:14:37.221Z,8.93
2022-10-30T23:19:40.431Z,8.85
2022-10-30T23:24:43.736Z,8.78
2022-10-30T23:29:48.173Z,8.75
2022-10-30T23:34:51.484Z,8.72
2022-10-30T23:39:54.899Z,8.70
2022-10-30T23:44:58.108Z,8.69
2022-10-30T23:50:01.419Z,8.63
2022-10-30T23:55:05.242Z,8.57
